Time;durP1;ratioP1;P1;durP2;ratioP2;P2;SDS_P1;SDS_P2;PMS_P1;PMS_P2;Temp;Humidity;BMP_temperature;BMP_pressure;BME280_temperature;BME280_humidity;BME280_pressure;Samples;Min_cycle;Max_cycle;Signal;HPM_P1;HPM_P2
2023/04/26 00:01:07;;;;;;;1.70;1.60;;;;;;;20.52;52.30;97386.69;4956149;28;20243;-27
2023/04/26 00:03:33;;;;;;;1.80;1.70;;;;;;;20.48;52.97;97379.78;4949838;28;20236;-28
2023/04/26 00:06:07;;;;;;;1.80;1.70;;;;;;;20.52;52.32;97376.47;4951082;28;20244;-27
2023/04/26 00:08:37;;;;;;;2.17;1.97;;;;;;;20.52;52.67;97381.59;4956504;28;20220;-29
2023/04/26 00:11:03;;;;;;;1.83;1.60;;;;;;;20.52;52.95;97380.75;4947522;28;20204;-28
2023/04/26 00:13:30;;;;;;;1.70;1.60;;;;;;;20.49;52.68;97375.53;4950845;28;20196;-28
2023/04/26 00:15:56;;;;;;;2.10;1.90;;;;;;;20.52;52.60;97380.75;4946642;28;20291;-27
2023/04/26 00:18:23;;;;;;;2.07;1.87;;;;;;;20.47;52.69;97375.50;4954586;28;20729;-27
2023/04/26 00:20:50;;;;;;;1.83;1.70;;;;;;;20.50;52.93;97396.00;4951607;28;20465;-27
2023/04/26 00:23:17;;;;;;;1.93;1.80;;;;;;;20.51;53.08;97384.97;4941274;28;20205;-28
2023/04/26 00:25:43;;;;;;;2.77;1.80;;;;;;;20.51;52.60;97378.97;4943286;28;20287;-26
2023/04/26 00:28:10;;;;;;;1.80;1.70;;;;;;;20.51;52.68;97387.53;4946781;28;20295;-30
2023/04/26 00:30:40;;;;;;;1.90;1.80;;;;;;;20.50;52.76;97387.47;4953020;28;20204;-28
2023/04/26 00:33:06;;;;;;;1.90;1.80;;;;;;;20.50;52.85;97390.91;4946040;28;20208;-28
2023/04/26 00:35:33;;;;;;;2.10;1.90;;;;;;;20.46;52.42;97383.09;4959748;28;20202;-30
2023/04/26 00:38:00;;;;;;;2.00;1.80;;;;;;;20.49;52.77;97384.03;4956106;28;20205;-30
2023/04/26 00:40:26;;;;;;;1.80;1.70;;;;;;;20.50;52.79;97388.34;4947297;28;20231;-30
2023/04/26 00:42:57;;;;;;;1.80;1.70;;;;;;;20.49;52.77;97384.03;4956135;28;20659;-31
2023/04/26 00:45:23;;;;;;;2.40;1.70;;;;;;;20.49;52.41;97383.19;4950737;28;20216;-31
2023/04/26 00:47:50;;;;;;;1.70;1.60;;;;;;;20.49;52.86;97384.03;4953228;28;20206;-30
2023/04/26 00:50:17;;;;;;;1.97;1.83;;;;;;;20.50;52.77;97382.38;4946625;28;20302;-30
2023/04/26 00:52:44;;;;;;;1.67;1.57;;;;;;;20.49;52.84;97385.75;4952528;28;20201;-30
2023/04/26 00:55:10;;;;;;;1.90;1.80;;;;;;;20.49;52.93;97390.84;4949988;28;20203;-30
2023/04/26 00:57:38;;;;;;;2.00;1.80;;;;;;;20.39;53.02;97368.41;4947923;28;20209;-30
2023/04/26 01:00:05;;;;;;;2.00;1.80;;;;;;;20.49;52.88;97386.59;4947156;28;20227;-30
2023/04/26 01:02:32;;;;;;;1.77;1.67;;;;;;;20.40;53.11;97373.53;4949552;28;20584;-31
2023/04/26 01:04:58;;;;;;;1.83;1.73;;;;;;;20.48;52.74;97384.88;4924363;28;20227;-30
2023/04/26 01:07:25;;;;;;;1.73;1.63;;;;;;;20.49;52.89;97396.81;4935426;28;20352;-29
2023/04/26 01:09:52;;;;;;;2.30;2.10;;;;;;;20.49;52.71;97399.34;4926331;28;20220;-29
2023/04/26 01:12:18;;;;;;;2.57;1.90;;;;;;;20.47;52.62;97395.91;4943957;28;20201;-29
2023/04/26 01:14:45;;;;;;;1.70;1.60;;;;;;;20.50;52.54;97397.69;4950951;28;20208;-31
2023/04/26 01:17:11;;;;;;;2.77;1.83;;;;;;;20.50;53.25;97402.78;4941608;28;20623;-30
2023/04/26 01:19:46;;;;;;;1.70;1.60;;;;;;;20.49;52.85;97401.91;4963832;28;20227;-28
2023/04/26 01:22:12;;;;;;;2.00;1.77;;;;;;;20.38;52.95;97382.88;4941422;28;20204;-27
2023/04/26 01:24:40;;;;;;;2.20;1.87;;;;;;;20.48;52.55;97391.66;4958470;28;20219;-28
2023/04/26 01:27:06;;;;;;;1.50;1.40;;;;;;;20.50;53.18;97395.13;4927508;29;20850;-27
2023/04/26 01:29:33;;;;;;;2.07;1.90;;;;;;;20.43;52.72;97386.41;4953580;28;20314;-27
2023/04/26 01:32:00;;;;;;;1.83;1.70;;;;;;;20.51;52.86;97401.97;4945951;28;20287;-27
2023/04/26 01:34:26;;;;;;;2.23;2.03;;;;;;;20.49;52.84;97394.25;4958091;28;20193;-27
2023/04/26 01:36:53;;;;;;;1.73;1.63;;;;;;;20.48;52.58;97395.09;4955834;28;20258;-27
2023/04/26 01:39:19;;;;;;;2.00;1.83;;;;;;;20.49;52.79;97396.81;4952348;28;20665;-27
2023/04/26 01:41:46;;;;;;;1.80;1.70;;;;;;;20.49;52.59;97399.34;4955017;28;20207;-28
2023/04/26 01:44:12;;;;;;;1.80;1.70;;;;;;;20.50;52.70;97400.25;4942199;28;20223;-27
2023/04/26 01:46:39;;;;;;;2.33;1.70;;;;;;;20.50;52.68;97406.22;4951338;28;20204;-26
2023/04/26 01:49:05;;;;;;;2.00;1.90;;;;;;;20.49;52.71;97404.47;4946912;28;20224;-27
2023/04/26 01:51:33;;;;;;;1.90;1.80;;;;;;;20.50;52.75;97421.53;4953439;28;20200;-28
2023/04/26 01:53:59;;;;;;;1.73;1.63;;;;;;;20.50;52.86;97408.78;4953094;28;20207;-27
2023/04/26 01:56:26;;;;;;;1.83;1.73;;;;;;;20.50;52.90;97408.78;4939989;28;20278;-29
2023/04/26 01:58:55;;;;;;;2.00;1.90;;;;;;;20.49;52.87;97414.69;4959033;28;20307;-30
2023/04/26 02:01:21;;;;;;;2.23;1.70;;;;;;;20.50;52.82;97410.44;4942496;28;20304;-30
2023/04/26 02:03:48;;;;;;;1.80;1.70;;;;;;;20.48;52.78;97401.88;4954545;28;20679;-29
2023/04/26 02:06:15;;;;;;;1.87;1.77;;;;;;;20.44;52.81;97406.03;4962767;28;20230;-31
2023/04/26 02:08:41;;;;;;;1.90;1.80;;;;;;;20.48;52.78;97420.63;4955664;28;20770;-32
2023/04/26 02:11:08;;;;;;;1.80;1.70;;;;;;;20.47;52.92;97420.56;4962244;28;20200;-30
2023/04/26 02:13:35;;;;;;;1.90;1.80;;;;;;;20.50;52.88;97425.78;4949357;28;20318;-30
2023/04/26 02:16:02;;;;;;;1.83;1.73;;;;;;;20.50;52.79;97424.09;4959005;28;20235;-30
2023/04/26 02:18:29;;;;;;;3.10;1.90;;;;;;;20.48;52.96;97419.75;4946038;28;20313;-32
2023/04/26 02:20:55;;;;;;;1.63;1.53;;;;;;;20.49;52.82;97419.78;4959736;28;20314;-31
2023/04/26 02:23:23;;;;;;;1.87;1.77;;;;;;;20.49;52.75;97435.09;4952040;28;20573;-30
2023/04/26 02:25:49;;;;;;;1.87;1.77;;;;;;;20.47;52.76;97424.00;4949678;28;20223;-31
2023/04/26 02:28:16;;;;;;;1.83;1.73;;;;;;;20.45;52.75;97419.63;4953897;28;20204;-30
2023/04/26 02:30:43;;;;;;;1.93;1.83;;;;;;;20.48;52.70;97423.16;4953686;28;20206;-30
2023/04/26 02:33:10;;;;;;;2.03;1.90;;;;;;;20.47;52.92;97415.47;4947243;28;20201;-29
2023/04/26 02:35:36;;;;;;;1.83;1.73;;;;;;;20.48;52.85;97418.06;4949861;28;20219;-30
2023/04/26 02:38:03;;;;;;;2.10;1.90;;;;;;;20.48;52.50;97415.50;4943926;28;20288;-30
2023/04/26 02:40:29;;;;;;;1.70;1.60;;;;;;;20.47;52.58;97413.78;4946762;28;20231;-30
2023/04/26 02:42:56;;;;;;;1.90;1.80;;;;;;;20.48;52.78;97415.50;4945480;28;20441;-30
2023/04/26 02:45:23;;;;;;;1.87;1.77;;;;;;;20.47;52.98;97415.47;4946303;28;20221;-31
2023/04/26 02:47:49;;;;;;;1.73;1.63;;;;;;;20.47;52.88;97413.78;4956969;28;20204;-30
2023/04/26 02:50:16;;;;;;;2.40;1.73;;;;;;;20.47;52.73;97415.47;4946854;28;20699;-30
2023/04/26 02:52:42;;;;;;;1.93;1.80;;;;;;;20.45;52.79;97406.88;4952198;28;20204;-30
2023/04/26 02:55:09;;;;;;;1.80;1.70;;;;;;;20.47;52.94;97416.34;4952522;28;20197;-30
2023/04/26 02:57:36;;;;;;;1.70;1.60;;;;;;;20.48;52.72;97417.19;4953173;28;20300;-29
2023/04/26 03:00:04;;;;;;;1.80;1.70;;;;;;;20.47;52.68;97411.22;4950679;28;20215;-29
2023/04/26 03:02:31;;;;;;;1.87;1.77;;;;;;;20.47;52.93;97411.22;4946843;28;20731;-30
2023/04/26 03:04:57;;;;;;;1.80;1.70;;;;;;;20.37;52.97;97398.97;4952276;28;20699;-30
2023/04/26 03:07:24;;;;;;;2.03;1.90;;;;;;;20.47;52.96;97408.69;4945597;28;20295;-29
2023/04/26 03:09:51;;;;;;;1.87;1.77;;;;;;;20.44;52.71;97415.38;4951964;28;20355;-29
2023/04/26 03:12:18;;;;;;;1.87;1.77;;;;;;;20.48;53.02;97412.06;4945742;28;20208;-29
2023/04/26 03:14:45;;;;;;;2.03;1.87;;;;;;;20.47;52.55;97408.69;4949838;28;20288;-31
2023/04/26 03:17:11;;;;;;;1.70;1.60;;;;;;;20.48;52.62;97409.53;4949364;28;20204;-30
2023/04/26 03:19:38;;;;;;;1.97;1.87;;;;;;;20.48;52.71;97418.06;4945713;28;20375;-30
2023/04/26 03:22:04;;;;;;;1.87;1.77;;;;;;;20.46;53.02;97411.19;4949522;28;20244;-30
2023/04/26 03:24:31;;;;;;;2.03;1.93;;;;;;;20.48;52.70;97415.50;4950982;28;20323;-29
2023/04/26 03:26:58;;;;;;;1.90;1.80;;;;;;;20.17;53.11;97369.44;4949439;28;20211;-30
2023/04/26 03:29:25;;;;;;;2.00;1.80;;;;;;;20.48;52.65;97423.16;4955313;28;20254;-31
2023/04/26 03:31:52;;;;;;;1.93;1.80;;;;;;;20.48;52.86;97422.28;4949290;28;20202;-29
2023/04/26 03:34:19;;;;;;;1.90;1.80;;;;;;;20.48;52.57;97422.28;4946632;28;20749;-30
2023/04/26 03:36:46;;;;;;;1.90;1.80;;;;;;;20.48;53.03;97425.72;4947255;28;20207;-30
2023/04/26 03:39:12;;;;;;;2.20;2.07;;;;;;;20.48;53.11;97420.63;4950128;28;20703;-29
2023/04/26 03:41:39;;;;;;;1.97;1.87;;;;;;;20.48;52.94;97420.63;4945655;28;20284;-29
2023/04/26 03:44:06;;;;;;;1.60;1.50;;;;;;;20.47;53.00;97428.22;4945992;28;20231;-29
2023/04/26 03:46:33;;;;;;;2.10;2.00;;;;;;;20.49;53.44;97436.81;4949575;28;20221;-30
2023/04/26 03:48:59;;;;;;;1.90;1.80;;;;;;;20.48;52.62;97433.38;4950470;28;20374;-29
2023/04/26 03:51:27;;;;;;;2.10;1.90;;;;;;;20.48;53.19;97441.03;4943599;28;20247;-29
2023/04/26 03:53:54;;;;;;;1.97;1.87;;;;;;;20.49;52.76;97431.69;4943658;28;20630;-29
2023/04/26 03:56:21;;;;;;;1.80;1.70;;;;;;;20.48;52.61;97433.38;4952964;28;20200;-29
2023/04/26 03:58:47;;;;;;;1.87;1.77;;;;;;;20.42;52.89;97428.06;4941032;28;20707;-30
2023/04/26 04:01:14;;;;;;;2.00;1.90;;;;;;;20.48;52.48;97443.59;4948062;28;20634;-29
2023/04/26 04:03:41;;;;;;;2.00;1.90;;;;;;;20.49;52.69;97447.03;4949757;28;20796;-29
2023/04/26 04:06:08;;;;;;;2.10;2.00;;;;;;;20.49;52.93;97449.56;4945118;28;20376;-29
2023/04/26 04:08:34;;;;;;;1.93;1.83;;;;;;;20.49;52.23;97455.53;4945108;28;20722;-31
2023/04/26 04:11:01;;;;;;;1.80;1.70;;;;;;;20.48;53.23;97448.69;4948934;28;20674;-30
2023/04/26 04:13:27;;;;;;;1.80;1.70;;;;;;;20.48;52.93;97451.25;4943948;28;20571;-29
2023/04/26 04:15:54;;;;;;;2.07;1.90;;;;;;;20.48;52.40;97452.91;4947457;28;20610;-30
2023/04/26 04:18:21;;;;;;;1.80;1.70;;;;;;;20.44;52.46;97446.88;4950547;28;20648;-29
2023/04/26 04:20:47;;;;;;;2.13;2.00;;;;;;;20.48;53.00;97464.00;4946977;28;20207;-29
2023/04/26 04:23:14;;;;;;;2.00;1.90;;;;;;;20.43;52.74;97442.56;4946236;28;20249;-30
2023/04/26 04:25:41;;;;;;;1.77;1.67;;;;;;;20.44;52.73;97464.75;4949078;28;20251;-30
2023/04/26 04:28:07;;;;;;;2.10;2.00;;;;;;;20.49;52.36;97457.22;4949218;28;20211;-30
2023/04/26 04:30:34;;;;;;;2.67;1.63;;;;;;;20.49;52.93;97457.22;4945592;28;20774;-29
2023/04/26 04:33:02;;;;;;;1.90;1.80;;;;;;;20.38;53.13;97431.34;4944871;28;20744;-29
2023/04/26 04:35:32;;;;;;;2.10;2.00;;;;;;;20.48;52.77;97458.91;4948737;28;20219;-30
2023/04/26 04:37:59;;;;;;;2.00;1.90;;;;;;;20.48;52.72;97458.91;4940799;28;20205;-30
2023/04/26 04:40:26;;;;;;;6.00;3.60;;;;;;;20.47;51.34;97464.84;4950470;28;20232;-29
2023/04/26 04:42:53;;;;;;;4.20;3.80;;;;;;;20.47;50.30;97456.31;4952801;28;20218;-30
2023/04/26 04:45:20;;;;;;;5.03;4.30;;;;;;;20.44;50.31;97461.31;4950297;28;20223;-30
2023/04/26 04:47:47;;;;;;;4.03;3.70;;;;;;;20.46;50.47;97463.09;4946300;28;20208;-30
2023/04/26 04:50:13;;;;;;;3.63;3.33;;;;;;;20.46;50.98;97467.34;4947500;28;20252;-29
2023/04/26 04:52:41;;;;;;;3.97;3.50;;;;;;;20.46;51.07;97469.91;4945717;28;20236;-29
2023/04/26 04:55:08;;;;;;;3.70;3.40;;;;;;;20.44;51.42;97469.84;4963450;28;20601;-30
2023/04/26 04:57:35;;;;;;;7.67;4.53;;;;;;;20.44;49.10;97474.06;4955902;28;20239;-29
2023/04/26 05:00:08;;;;;;;7.03;5.13;;;;;;;20.43;47.83;97475.75;4956146;28;20252;-30
2023/04/26 05:02:36;;;;;;;7.80;5.27;;;;;;;20.41;47.02;97479.06;4956938;28;20196;-29
2023/04/26 05:05:03;;;;;;;7.30;5.87;;;;;;;20.42;45.80;97483.34;4955530;28;20220;-30
2023/04/26 05:07:31;;;;;;;6.30;5.70;;;;;;;20.40;45.57;97487.56;4951587;28;20204;-30
2023/04/26 05:09:58;;;;;;;7.80;5.83;;;;;;;20.38;44.89;97484.97;4943721;28;20229;-29
2023/04/26 05:12:25;;;;;;;9.70;6.40;;;;;;;20.37;44.54;97483.19;4954514;28;20212;-29
2023/04/26 05:14:51;;;;;;;8.20;5.80;;;;;;;20.36;43.88;97485.69;4947800;28;20204;-31
2023/04/26 05:17:18;;;;;;;6.93;5.77;;;;;;;20.31;44.02;97487.25;4952553;28;20201;-29
2023/04/26 05:19:44;;;;;;;8.90;5.77;;;;;;;20.34;43.88;97495.03;4955882;28;20531;-30
2023/04/26 05:22:17;;;;;;;7.00;5.43;;;;;;;20.33;43.58;97483.06;4956032;28;20208;-29
2023/04/26 05:24:46;;;;;;;6.47;5.13;;;;;;;20.30;43.76;97483.81;4955115;28;20201;-29
2023/04/26 05:27:13;;;;;;;7.80;5.97;;;;;;;20.31;43.26;97485.56;4940319;28;20212;-30
2023/04/26 05:29:40;;;;;;;8.17;5.80;;;;;;;20.31;42.86;97484.72;4953181;28;20227;-29
2023/04/26 05:32:07;;;;;;;7.10;5.90;;;;;;;20.30;43.51;97485.50;4952150;28;20660;-30
2023/04/26 05:34:34;;;;;;;8.27;6.07;;;;;;;20.30;44.08;97477.84;4945464;28;20284;-29
2023/04/26 05:37:00;;;;;;;11.93;6.87;;;;;;;20.29;44.21;97489.75;4951373;28;20204;-29
2023/04/26 05:39:27;;;;;;;11.00;6.40;;;;;;;20.26;44.65;97481.13;4948287;28;20220;-30
2023/04/26 05:41:53;;;;;;;7.03;5.87;;;;;;;20.29;45.23;97487.22;4955798;28;20196;-29
2023/04/26 05:44:20;;;;;;;9.50;5.40;;;;;;;20.27;45.76;97490.50;4951804;28;20208;-29
2023/04/26 05:46:47;;;;;;;7.73;5.80;;;;;;;20.30;46.58;97498.25;4947126;28;20737;-29
2023/04/26 05:49:13;;;;;;;6.57;5.07;;;;;;;20.29;46.57;97501.63;4953912;28;20236;-30
2023/04/26 05:51:40;;;;;;;11.90;6.40;;;;;;;20.30;44.98;97511.03;4945682;28;20228;-29
2023/04/26 05:54:06;;;;;;;10.07;6.77;;;;;;;20.28;44.21;97507.56;4948527;28;20257;-29
2023/04/26 05:56:33;;;;;;;12.17;6.47;;;;;;;20.24;44.04;97498.94;4959984;28;20742;-29
2023/04/26 05:59:00;;;;;;;8.53;6.10;;;;;;;20.28;44.25;97515.22;4957579;28;20231;-30
2023/04/26 06:01:26;;;;;;;9.77;5.83;;;;;;;20.28;44.97;97517.78;4955060;28;20228;-30
2023/04/26 06:03:53;;;;;;;6.83;5.90;;;;;;;20.28;45.66;97522.88;4947380;28;20202;-30
2023/04/26 06:06:27;;;;;;;7.67;5.97;;;;;;;20.27;45.65;97516.91;4950010;28;20217;-30
2023/04/26 06:08:54;;;;;;;7.10;5.37;;;;;;;20.28;46.35;97523.72;4954606;28;20282;-30
2023/04/26 06:11:21;;;;;;;5.87;5.27;;;;;;;20.26;46.71;97519.41;4938857;28;20232;-30
2023/04/26 06:13:47;;;;;;;7.47;5.23;;;;;;;20.29;47.23;97534.81;4955513;28;20204;-26
2023/04/26 06:16:14;;;;;;;6.50;5.10;;;;;;;20.28;46.57;97522.88;4946986;28;20704;-27
2023/04/26 06:18:41;;;;;;;5.90;5.30;;;;;;;20.30;47.42;97529.75;4946737;28;20311;-27
2023/04/26 06:21:08;;;;;;;7.70;5.10;;;;;;;20.31;47.85;97531.50;4947200;28;20200;-27
2023/04/26 06:23:34;;;;;;;7.30;5.07;;;;;;;20.31;48.19;97531.50;4953329;28;20204;-27
2023/04/26 06:26:01;;;;;;;6.90;4.53;;;;;;;20.31;47.79;97533.19;4945515;28;20721;-27
2023/04/26 06:28:28;;;;;;;7.60;4.70;;;;;;;20.31;48.09;97534.03;4947329;28;20200;-27
2023/04/26 06:30:54;;;;;;;6.53;5.00;;;;;;;20.32;48.88;97543.47;4955008;28;20232;-27
2023/04/26 06:33:21;;;;;;;5.60;5.00;;;;;;;20.32;48.00;97535.81;4951822;28;20216;-28
2023/04/26 06:35:47;;;;;;;6.70;4.37;;;;;;;20.30;48.28;97527.22;4946056;28;20295;-27
2023/04/26 06:38:14;;;;;;;4.70;4.27;;;;;;;20.34;48.52;97543.50;4953008;28;20208;-27
2023/04/26 06:40:41;;;;;;;5.73;4.77;;;;;;;20.33;48.35;97540.06;4953509;28;20211;-27
2023/04/26 06:43:08;;;;;;;4.93;4.27;;;;;;;20.33;48.45;97546.84;4946196;28;20678;-30
2023/04/26 06:45:35;;;;;;;6.73;4.00;;;;;;;20.34;49.25;97552.00;4949582;28;20225;-30
2023/04/26 06:48:03;;;;;;;7.30;3.90;;;;;;;20.34;48.94;97557.13;4946016;28;20211;-30
2023/04/26 06:50:30;;;;;;;5.10;3.97;;;;;;;20.35;48.92;97553.78;4946653;28;20224;-31
2023/04/26 06:52:56;;;;;;;4.43;3.80;;;;;;;20.35;48.57;97550.34;4946750;28;20209;-31
2023/04/26 06:55:23;;;;;;;5.33;4.00;;;;;;;20.35;48.94;97563.97;4949819;28;20201;-29
2023/04/26 06:57:50;;;;;;;5.87;3.80;;;;;;;20.36;48.96;97558.06;4954248;28;20200;-30
2023/04/26 07:00:17;;;;;;;4.63;4.10;;;;;;;20.36;48.95;97563.16;4951229;28;20236;-31
2023/04/26 07:02:43;;;;;;;5.00;4.00;;;;;;;20.36;46.90;97564.81;4951257;28;20664;-29
2023/04/26 07:05:10;;;;;;;8.87;4.37;;;;;;;20.33;44.06;97560.50;4962077;28;20203;-29
2023/04/26 07:07:37;;;;;;;4.57;4.07;;;;;;;20.34;44.06;97561.38;4954474;28;20200;-35
2023/04/26 07:10:04;;;;;;;8.93;4.13;;;;;;;20.34;44.34;97556.28;4951881;28;20321;-29
2023/04/26 07:12:30;;;;;;;6.20;3.83;;;;;;;20.34;44.09;97553.72;4950496;28;20296;-30
2023/04/26 07:14:57;;;;;;;4.53;3.50;;;;;;;19.94;43.88;97492.75;4953538;28;20200;-29
2023/04/26 07:17:23;;;;;;;6.30;4.00;;;;;;;20.33;45.00;97552.84;4940806;28;20213;-31
2023/04/26 07:19:50;;;;;;;4.90;3.40;;;;;;;20.30;45.51;97552.72;4949062;28;20280;-30
2023/04/26 07:22:16;;;;;;;7.27;3.67;;;;;;;20.33;45.81;97555.41;4948835;28;20196;-29
2023/04/26 07:24:43;;;;;;;5.73;3.70;;;;;;;20.34;46.58;97554.56;4944449;28;20228;-30
2023/04/26 07:27:10;;;;;;;6.37;3.53;;;;;;;20.35;46.91;97558.88;4950123;28;20227;-29
2023/04/26 07:29:37;;;;;;;5.40;3.50;;;;;;;20.36;46.93;97552.94;4946716;28;20260;-29
2023/04/26 07:32:04;;;;;;;6.00;3.20;;;;;;;20.37;47.01;97544.47;4950767;28;20214;-29
2023/04/26 07:34:30;;;;;;;4.37;3.10;;;;;;;20.38;47.17;97546.22;4941671;28;20201;-29
2023/04/26 07:36:57;;;;;;;3.10;2.80;;;;;;;20.40;47.38;97548.81;4942291;28;20228;-29
2023/04/26 07:39:24;;;;;;;4.50;3.30;;;;;;;20.40;47.43;97551.38;4943144;28;20221;-30
2023/04/26 07:41:50;;;;;;;5.63;2.80;;;;;;;20.41;47.74;97543.78;4944423;28;20250;-30
2023/04/26 07:44:17;;;;;;;4.50;3.00;;;;;;;20.41;47.48;97548.88;4940908;28;20200;-29
2023/04/26 07:46:43;;;;;;;3.10;2.80;;;;;;;20.40;47.79;97539.47;4947845;28;20226;-29
2023/04/26 07:49:10;;;;;;;3.30;3.00;;;;;;;20.43;47.90;97544.66;4939745;28;20225;-30
2023/04/26 07:51:37;;;;;;;3.63;2.93;;;;;;;20.44;47.69;97548.09;4938677;28;20239;-29
2023/04/26 07:54:03;;;;;;;5.70;2.70;;;;;;;20.46;47.89;97551.59;4939797;28;20276;-30
2023/04/26 07:56:30;;;;;;;4.13;2.97;;;;;;;20.46;47.84;97560.09;4947293;28;20228;-30
2023/04/26 07:58:56;;;;;;;4.57;2.73;;;;;;;20.46;48.30;97554.97;4938736;28;20224;-30
2023/04/26 08:01:23;;;;;;;3.07;2.77;;;;;;;20.48;48.14;97552.47;4947430;28;20204;-30
2023/04/26 08:03:50;;;;;;;3.40;2.60;;;;;;;20.43;48.20;97544.66;4949420;28;20200;-30
2023/04/26 08:06:17;;;;;;;3.67;2.57;;;;;;;20.50;48.27;97553.41;4943284;28;20232;-30
2023/04/26 08:08:48;;;;;;;3.30;2.50;;;;;;;20.51;48.53;97553.47;4956627;28;20231;-30
2023/04/26 08:11:14;;;;;;;3.87;2.77;;;;;;;20.50;48.40;97549.19;4949614;28;20200;-30
2023/04/26 08:13:42;;;;;;;4.30;2.67;;;;;;;20.51;48.58;97545.81;4945989;28;20287;-30
2023/04/26 08:16:09;;;;;;;3.60;2.50;;;;;;;20.52;48.42;97547.53;4942717;28;20287;-29
2023/04/26 08:18:36;;;;;;;4.53;2.93;;;;;;;20.54;48.01;97552.72;4938944;28;20217;-30
2023/04/26 08:21:03;;;;;;;2.70;2.50;;;;;;;20.53;48.45;97548.41;4950678;28;20204;-29
2023/04/26 08:23:34;;;;;;;6.77;2.77;;;;;;;20.54;48.74;97548.47;4944581;28;20209;-29
2023/04/26 08:26:01;;;;;;;4.13;2.40;;;;;;;20.55;48.54;97547.66;4939742;28;20598;-29
2023/04/26 08:28:28;;;;;;;3.03;2.30;;;;;;;20.49;48.07;97534.66;4936549;28;20209;-29
2023/04/26 08:30:54;;;;;;;4.77;2.40;;;;;;;20.55;48.41;97550.22;4942009;28;20204;-30
2023/04/26 08:33:21;;;;;;;3.47;2.47;;;;;;;20.53;48.78;97544.19;4935277;28;20209;-30
2023/04/26 08:35:48;;;;;;;2.60;2.40;;;;;;;20.47;49.01;97527.78;4942587;28;20196;-30
2023/04/26 08:38:15;;;;;;;2.40;2.20;;;;;;;20.56;48.67;97545.97;4949327;28;20246;-29
2023/04/26 08:40:41;;;;;;;3.03;2.20;;;;;;;20.42;48.51;97522.53;4945359;28;20368;-30
2023/04/26 08:43:08;;;;;;;2.40;2.20;;;;;;;20.54;48.88;97540.81;4946314;28;20286;-30
2023/04/26 08:45:35;;;;;;;2.50;2.20;;;;;;;20.50;48.70;97538.97;4940903;28;20655;-30
2023/04/26 08:48:07;;;;;;;2.30;2.10;;;;;;;20.52;48.83;97544.13;4950423;28;20208;-31
2023/04/26 08:50:35;;;;;;;2.60;2.10;;;;;;;20.56;48.75;97553.63;4930912;29;20237;-29
2023/04/26 08:53:02;;;;;;;2.63;2.40;;;;;;;20.56;48.74;97556.16;4925890;28;20209;-30
2023/04/26 08:55:29;;;;;;;2.70;2.50;;;;;;;20.52;49.04;97547.53;4945859;28;20201;-30
2023/04/26 08:57:55;;;;;;;3.07;2.37;;;;;;;20.51;48.62;97545.81;4944878;28;20205;-29
2023/04/26 09:00:22;;;;;;;2.73;2.43;;;;;;;20.50;48.96;97545.75;4932815;28;20264;-31
2023/04/26 09:02:50;;;;;;;2.47;2.00;;;;;;;20.57;48.87;97542.59;4929393;29;20583;-31
2023/04/26 09:05:22;;;;;;;2.30;2.10;;;;;;;20.55;49.23;97540.00;4937901;28;20204;-30
2023/04/26 09:07:50;;;;;;;2.30;1.93;;;;;;;20.57;48.98;97534.94;4939604;28;20599;-30
2023/04/26 09:10:20;;;;;;;2.20;2.00;;;;;;;20.57;49.06;97542.59;4939861;28;20220;-29
2023/04/26 09:12:53;;;;;;;2.13;1.93;;;;;;;20.56;49.02;97548.50;4942590;28;20196;-31
2023/04/26 09:15:25;;;;;;;3.10;2.43;;;;;;;20.57;49.07;97547.72;4946191;28;20204;-29
2023/04/26 09:17:52;;;;;;;2.20;2.00;;;;;;;20.56;49.03;97545.97;4939216;28;20205;-29
2023/04/26 09:20:30;;;;;;;2.30;2.10;;;;;;;20.51;48.96;97538.16;4947598;28;20229;-30
2023/04/26 09:23:04;;;;;;;2.27;2.07;;;;;;;20.53;49.26;97535.66;4944958;28;20204;-30
2023/04/26 09:25:31;;;;;;;2.30;2.00;;;;;;;20.57;49.14;97548.56;4943264;28;20219;-29
2023/04/26 09:27:58;;;;;;;3.30;2.23;;;;;;;20.55;49.24;97551.91;4946239;28;20224;-31
2023/04/26 09:30:25;;;;;;;2.13;1.97;;;;;;;20.49;49.15;97526.16;4943653;28;20322;-29
2023/04/26 09:32:51;;;;;;;1.93;1.80;;;;;;;20.57;49.38;97537.50;4952937;28;20605;-29
2023/04/26 09:35:47;;;;;;;2.10;1.90;;;;;;;20.56;49.34;97534.06;4938183;28;20212;-30
2023/04/26 09:38:16;;;;;;;2.40;2.20;;;;;;;20.53;49.36;97526.31;4932318;28;20212;-31
2023/04/26 09:40:49;;;;;;;2.30;2.17;;;;;;;20.58;49.21;97529.00;4945419;28;20212;-30
2023/04/26 09:43:19;;;;;;;2.20;2.00;;;;;;;20.56;49.16;97521.31;4946543;28;20204;-30
2023/04/26 09:45:52;;;;;;;2.40;2.20;;;;;;;20.56;49.26;97521.31;4951014;28;20320;-29
2023/04/26 09:48:21;;;;;;;2.20;2.00;;;;;;;20.57;49.34;97535.78;4944887;28;20204;-30
2023/04/26 09:50:51;;;;;;;2.27;2.07;;;;;;;20.57;49.36;97533.25;4948813;28;20204;-30
2023/04/26 09:53:26;;;;;;;2.27;2.00;;;;;;;20.57;49.45;97540.91;4956918;28;20202;-30
2023/04/26 09:55:53;;;;;;;2.30;2.10;;;;;;;20.57;49.43;97540.91;4953645;28;20589;-29
2023/04/26 09:58:20;;;;;;;2.00;1.80;;;;;;;20.56;49.53;97526.41;4949714;28;20232;-30
2023/04/26 10:00:46;;;;;;;2.50;2.10;;;;;;;20.58;49.87;97534.13;4949324;28;20205;-29
2023/04/26 10:03:13;;;;;;;2.17;1.97;;;;;;;20.50;49.40;97521.09;4929586;28;20220;-30
2023/04/26 10:05:40;;;;;;;2.03;1.90;;;;;;;20.52;49.39;97516.03;4938619;29;20622;-37
2023/04/26 10:08:07;;;;;;;1.77;1.67;;;;;;;20.54;50.20;97522.94;4933881;29;20662;-30
2023/04/26 10:10:34;;;;;;;2.00;1.90;;;;;;;20.59;49.54;97528.19;4931711;29;20229;-29
2023/04/26 10:13:00;;;;;;;2.10;1.90;;;;;;;20.58;49.55;97532.44;4937258;28;20325;-29
2023/04/26 10:15:27;;;;;;;2.20;1.80;;;;;;;20.54;49.41;97525.47;4948025;28;20205;-30
2023/04/26 10:17:53;;;;;;;2.00;1.90;;;;;;;20.58;49.58;97526.47;4931225;29;20201;-31
2023/04/26 10:20:21;;;;;;;1.80;1.70;;;;;;;20.58;49.55;97513.69;4947543;28;20256;-30
2023/04/26 10:22:52;;;;;;;2.00;1.90;;;;;;;20.53;49.45;97505.00;4925720;29;20673;-30
2023/04/26 10:25:19;;;;;;;2.20;2.00;;;;;;;20.57;49.52;97500.06;4931850;28;20287;-29
2023/04/26 10:27:47;;;;;;;2.60;1.97;;;;;;;20.55;49.42;97509.38;4954574;28;20303;-30
2023/04/26 10:30:15;;;;;;;2.27;2.00;;;;;;;20.57;49.70;97507.72;4940859;28;20926;-30
2023/04/26 10:32:51;;;;;;;1.90;1.80;;;;;;;20.57;49.22;97504.31;4949554;28;20675;-29
2023/04/26 10:35:18;;;;;;;1.80;1.67;;;;;;;20.53;49.46;97498.22;4950526;28;20602;-29
2023/04/26 10:38:02;;;;;;;1.80;1.70;;;;;;;20.57;49.52;97504.31;4945432;28;20668;-29
2023/04/26 10:40:33;;;;;;;2.10;1.90;;;;;;;20.52;49.61;97488.81;4949837;28;20228;-35
2023/04/26 10:43:15;;;;;;;1.90;1.80;;;;;;;20.56;49.74;97503.44;4948985;28;20212;-31
2023/04/26 10:45:42;;;;;;;2.13;1.70;;;;;;;20.57;49.69;97501.75;4942256;28;20200;-30
2023/04/26 10:48:28;;;;;;;1.90;1.80;;;;;;;20.57;50.09;97489.84;4947235;28;20666;-29
2023/04/26 10:51:03;;;;;;;1.87;1.77;;;;;;;20.58;49.74;97485.63;4941070;28;20236;-30
2023/04/26 10:53:30;;;;;;;2.03;1.87;;;;;;;20.57;49.71;97489.84;4950665;28;20212;-29
2023/04/26 10:55:56;;;;;;;2.07;1.87;;;;;;;20.56;49.54;97484.69;4947337;28;20252;-29
2023/04/26 10:58:27;;;;;;;1.80;1.70;;;;;;;20.57;49.42;97492.41;4927767;28;20201;-30
2023/04/26 11:01:16;;;;;;;2.00;1.80;;;;;;;20.57;49.82;97487.28;4948727;28;20229;-29
2023/04/26 11:04:02;;;;;;;2.20;1.90;;;;;;;20.58;49.77;97491.59;4947383;28;20193;-30
2023/04/26 11:06:49;;;;;;;1.83;1.70;;;;;;;20.57;49.65;97492.41;4954755;28;20230;-30
2023/04/26 11:09:38;;;;;;;2.60;1.90;;;;;;;20.58;49.64;97488.16;4949442;28;20249;-30
2023/04/26 11:12:05;;;;;;;2.50;2.17;;;;;;;20.57;49.84;97477.06;4949569;28;20208;-30
2023/04/26 11:14:33;;;;;;;1.90;1.80;;;;;;;20.51;49.78;97476.88;4954058;28;20219;-29
2023/04/26 11:17:04;;;;;;;2.33;2.13;;;;;;;20.57;49.71;97476.22;4952203;28;20220;-30
2023/04/26 11:19:31;;;;;;;2.63;1.90;;;;;;;20.55;49.93;97471.06;4953770;28;20586;-29
2023/04/26 11:21:59;;;;;;;2.47;2.00;;;;;;;20.58;49.85;97477.94;4940959;28;20298;-30
2023/04/26 11:24:27;;;;;;;4.00;2.10;;;;;;;20.56;49.96;97471.91;4945517;28;20217;-29
2023/04/26 11:26:54;;;;;;;3.30;2.03;;;;;;;20.51;49.92;97460.69;4948286;28;20588;-30
2023/04/26 11:29:20;;;;;;;2.53;2.07;;;;;;;20.57;49.87;97466.84;4947896;28;20232;-29
2023/04/26 11:31:53;;;;;;;2.53;2.03;;;;;;;20.57;50.18;97464.31;4944904;28;20652;-30
2023/04/26 11:34:37;;;;;;;2.47;2.03;;;;;;;20.57;49.90;97463.47;4941540;28;20579;-30
2023/04/26 11:37:04;;;;;;;2.73;2.30;;;;;;;20.54;50.11;97456.53;4949326;28;20204;-30